Time;durP1;ratioP1;P1;durP2;ratioP2;P2;SDS_P1;SDS_P2;PMS_P1;PMS_P2;Temp;Humidity;BMP_temperature;BMP_pressure;BME280_temperature;BME280_humidity;BME280_pressure;Samples;Min_cycle;Max_cycle;Signal;HPM_P1;HPM_P2
2021/12/28 00:00:13;;;;;;;3.58;2.30;;;;;;;9.23;80.47;98088.47;342100;28;1048;-67
2021/12/28 00:00:27;;;;;;;4.53;2.35;;;;;;;9.23;80.50;98089.31;342386;28;897;-67
2021/12/28 00:00:39;;;;;;;5.32;2.47;;;;;;;9.23;80.40;98088.47;341457;28;2018;-68
2021/12/28 00:00:51;;;;;;;4.40;2.60;;;;;;;9.22;80.52;98092.00;343454;28;1077;-68
2021/12/28 00:01:09;;;;;;;3.28;2.45;;;;;;;9.22;80.50;98087.66;342702;28;1534;-68
2021/12/28 00:01:22;;;;;;;3.00;2.50;;;;;;;9.24;80.74;98090.16;341806;28;1694;-68
2021/12/28 00:01:34;;;;;;;3.03;2.40;;;;;;;9.24;80.42;98090.16;340504;29;1636;-68
2021/12/28 00:01:48;;;;;;;2.63;2.22;;;;;;;9.25;80.92;98091.84;340903;29;1012;-67
2021/12/28 00:02:01;;;;;;;3.15;2.40;;;;;;;9.24;80.59;98091.00;341000;28;1988;-67
2021/12/28 00:02:13;;;;;;;3.10;2.25;;;;;;;9.25;80.71;98092.66;340773;29;1159;-68
2021/12/28 00:02:25;;;;;;;3.03;2.15;;;;;;;9.25;80.62;98094.41;340084;29;2299;-68
2021/12/28 00:02:38;;;;;;;2.75;2.25;;;;;;;9.26;80.78;98093.53;340537;29;2243;-68
2021/12/28 00:02:51;;;;;;;3.53;2.70;;;;;;;9.26;80.58;98090.94;340266;29;2024;-68
2021/12/28 00:03:03;;;;;;;3.35;2.75;;;;;;;9.26;81.05;98093.53;340437;29;1892;-67
2021/12/28 00:03:16;;;;;;;2.88;2.35;;;;;;;9.28;80.73;98096.88;339712;29;1028;-67
2021/12/28 00:03:28;;;;;;;3.00;2.20;;;;;;;9.29;80.99;98094.16;339341;29;1017;-68
2021/12/28 00:03:42;;;;;;;3.67;2.33;;;;;;;9.30;80.83;98100.22;340779;29;1101;-68
2021/12/28 00:03:54;;;;;;;3.63;2.53;;;;;;;9.27;80.63;98100.38;341032;29;1002;-67
2021/12/28 00:04:07;;;;;;;4.00;2.63;;;;;;;9.27;80.45;98092.59;340781;29;1261;-67
2021/12/28 00:04:19;;;;;;;3.53;2.45;;;;;;;9.27;80.59;98092.59;340744;29;1203;-67
2021/12/28 00:04:31;;;;;;;3.70;2.47;;;;;;;9.29;80.65;98093.34;341852;28;1329;-68
2021/12/28 00:04:44;;;;;;;4.78;2.58;;;;;;;9.29;80.41;98090.75;341232;28;1093;-68
2021/12/28 00:04:56;;;;;;;5.63;2.80;;;;;;;9.30;80.50;98092.44;340708;29;1540;-68
2021/12/28 00:05:09;;;;;;;5.13;2.60;;;;;;;9.32;80.56;98093.19;340579;29;1150;-68
2021/12/28 00:05:23;;;;;;;3.47;2.30;;;;;;;9.31;80.65;98091.50;340040;29;1766;-67
2021/12/28 00:05:35;;;;;;;3.72;2.35;;;;;;;9.32;80.57;98088.00;338784;29;2188;-67
2021/12/28 00:05:47;;;;;;;3.85;2.50;;;;;;;9.32;80.56;98090.59;339244;29;1076;-67
2021/12/28 00:06:00;;;;;;;3.60;2.53;;;;;;;9.33;80.45;98094.84;339188;29;1834;-68
2021/12/28 00:06:14;;;;;;;4.00;2.67;;;;;;;9.33;80.39;98089.66;340376;29;1047;-68
2021/12/28 00:06:26;;;;;;;3.67;2.80;;;;;;;9.34;80.38;98091.38;340460;29;1590;-67
2021/12/28 00:06:38;;;;;;;3.97;2.97;;;;;;;9.30;79.98;98090.69;340359;29;1958;-68
2021/12/28 00:06:50;;;;;;;3.92;2.85;;;;;;;9.30;79.78;98092.44;342179;28;2123;-68
2021/12/28 00:07:03;;;;;;;4.25;2.70;;;;;;;9.28;80.08;98091.69;342021;28;1543;-68
2021/12/28 00:07:15;;;;;;;3.45;2.53;;;;;;;9.22;80.36;98095.44;341394;28;1820;-68
2021/12/28 00:07:27;;;;;;;3.45;2.72;;;;;;;9.24;80.63;98091.00;342042;28;1625;-67
2021/12/28 00:07:39;;;;;;;3.60;2.70;;;;;;;9.26;80.18;98094.34;341739;28;1056;-67
2021/12/28 00:07:51;;;;;;;4.20;2.40;;;;;;;9.26;80.41;98093.53;342661;28;1908;-68
2021/12/28 00:08:03;;;;;;;4.63;2.60;;;;;;;9.27;80.48;98088.22;342555;28;1976;-67
2021/12/28 00:08:18;;;;;;;4.05;2.55;;;;;;;9.29;80.53;98090.75;343331;28;1933;-67
2021/12/28 00:08:32;;;;;;;3.80;2.55;;;;;;;9.29;80.14;98090.75;343428;28;1193;-68
2021/12/28 00:08:45;;;;;;;4.45;2.45;;;;;;;9.30;79.92;98092.44;342127;28;1080;-68
2021/12/28 00:08:58;;;;;;;3.90;2.35;;;;;;;9.31;80.05;98092.34;341294;28;1588;-68
2021/12/28 00:09:10;;;;;;;3.78;2.28;;;;;;;9.33;80.11;98089.66;342081;28;1023;-67
2021/12/28 00:09:22;;;;;;;3.10;2.20;;;;;;;9.35;80.36;98093.03;342121;28;1216;-68
2021/12/28 00:09:34;;;;;;;3.08;2.30;;;;;;;9.38;80.30;98095.47;342288;28;1150;-68
2021/12/28 00:09:46;;;;;;;2.95;2.47;;;;;;;9.38;80.31;98087.69;342120;28;1204;-67
2021/12/28 00:09:58;;;;;;;3.25;2.55;;;;;;;9.41;80.20;98090.09;341839;28;1555;-67
2021/12/28 00:10:13;;;;;;;3.97;2.70;;;;;;;9.41;80.00;98090.09;341488;28;987;-68
2021/12/28 00:10:25;;;;;;;3.85;2.45;;;;;;;9.43;79.82;98095.22;340187;29;2110;-68
2021/12/28 00:10:37;;;;;;;3.20;2.20;;;;;;;9.44;80.02;98091.69;340751;29;1089;-67
2021/12/28 00:10:49;;;;;;;3.03;2.25;;;;;;;9.44;79.90;98091.69;340757;29;1037;-67
2021/12/28 00:11:04;;;;;;;3.63;2.60;;;;;;;9.46;79.81;98090.72;340662;28;2080;-68
2021/12/28 00:11:16;;;;;;;4.22;2.90;;;;;;;9.45;79.58;98083.84;341437;28;1720;-67
2021/12/28 00:11:28;;;;;;;4.72;2.92;;;;;;;9.46;79.56;98085.53;343061;28;1463;-67
2021/12/28 00:11:40;;;;;;;4.40;2.67;;;;;;;9.47;79.45;98091.53;343642;28;1171;-68
2021/12/28 00:11:52;;;;;;;5.22;2.70;;;;;;;9.45;79.70;98089.03;343419;28;2141;-67
2021/12/28 00:12:05;;;;;;;5.25;3.03;;;;;;;9.40;79.40;98083.25;343341;28;1262;-68
2021/12/28 00:12:17;;;;;;;5.03;3.08;;;;;;;9.38;79.15;98087.69;343496;28;1116;-68
2021/12/28 00:12:32;;;;;;;4.53;2.65;;;;;;;9.40;79.42;98085.84;343412;28;1048;-68
2021/12/28 00:12:44;;;;;;;4.53;2.17;;;;;;;9.41;79.60;98087.50;343785;28;1099;-69
2021/12/28 00:12:56;;;;;;;4.07;2.13;;;;;;;9.45;79.61;98090.78;343454;28;1395;-68
2021/12/28 00:13:08;;;;;;;2.53;2.08;;;;;;;9.46;79.54;98084.69;343887;28;1428;-67
2021/12/28 00:13:20;;;;;;;2.45;2.25;;;;;;;9.48;79.65;98082.84;343656;28;1017;-68
2021/12/28 00:13:33;;;;;;;2.65;2.42;;;;;;;9.49;79.50;98084.50;342260;28;1064;-68
2021/12/28 00:13:45;;;;;;;3.40;2.50;;;;;;;9.49;79.47;98085.34;342390;28;1047;-68
2021/12/28 00:14:01;;;;;;;3.53;2.30;;;;;;;9.49;79.47;98085.34;342643;28;1821;-68
2021/12/28 00:14:15;;;;;;;3.10;2.35;;;;;;;9.48;79.53;98088.88;343737;28;1262;-68
2021/12/28 00:14:35;;;;;;;2.55;2.17;;;;;;;9.50;79.68;98087.03;343754;28;1090;-68
2021/12/28 00:15:02;;;;;;;3.10;2.00;;;;;;;9.53;79.63;98092.03;343210;28;2216;-69
2021/12/28 00:15:49;;;;;;;2.97;1.98;;;;;;;9.56;79.63;98086.72;342442;28;5247;-68
2021/12/28 00:16:02;;;;;;;3.30;1.92;;;;;;;9.60;79.64;98084.78;341940;28;1059;-68
2021/12/28 00:18:13;;;;;;;3.63;2.10;;;;;;;9.75;79.52;98080.53;343464;28;1059;-68
2021/12/28 00:18:25;;;;;;;3.35;1.95;;;;;;;9.76;79.33;98082.22;343579;28;1146;-68
2021/12/28 00:18:37;;;;;;;3.38;1.75;;;;;;;9.76;79.26;98077.03;341685;28;2239;-67
2021/12/28 00:18:50;;;;;;;3.72;1.75;;;;;;;9.77;79.49;98078.69;341443;28;1578;-68
2021/12/28 00:19:03;;;;;;;3.63;1.77;;;;;;;9.80;79.13;98078.53;340721;28;2080;-68
2021/12/28 00:19:15;;;;;;;4.88;2.10;;;;;;;9.79;79.00;98082.03;341241;28;2354;-68
2021/12/28 00:19:27;;;;;;;5.20;2.20;;;;;;;9.80;79.00;98081.13;342238;28;1042;-68
2021/12/28 00:19:39;;;;;;;3.95;2.08;;;;;;;9.80;79.14;98078.53;342598;28;1139;-68
2021/12/28 00:19:51;;;;;;;3.35;1.88;;;;;;;9.82;79.03;98076.69;342666;28;1284;-67
2021/12/28 00:20:04;;;;;;;3.80;1.85;;;;;;;9.83;78.99;98078.34;341860;28;1679;-68
2021/12/28 00:20:16;;;;;;;3.47;1.90;;;;;;;9.83;79.07;98082.69;342079;28;1761;-68
2021/12/28 00:20:29;;;;;;;3.17;1.90;;;;;;;9.84;79.13;98077.44;341937;28;1849;-68
2021/12/28 00:20:46;;;;;;;2.83;1.90;;;;;;;9.85;79.26;98080.84;341787;28;2247;-67
2021/12/28 00:21:01;;;;;;;3.20;1.90;;;;;;;9.86;79.18;98080.78;339580;28;1609;-68
2021/12/28 00:21:14;;;;;;;3.70;1.90;;;;;;;9.88;79.15;98080.69;339742;29;1918;-67
2021/12/28 00:21:26;;;;;;;4.28;1.98;;;;;;;9.88;79.27;98076.34;338266;29;1065;-68
2021/12/28 00:21:38;;;;;;;5.00;2.13;;;;;;;9.89;78.87;98072.81;336827;29;1330;-68
2021/12/28 00:21:50;;;;;;;5.00;2.20;;;;;;;9.90;78.97;98073.63;336996;29;1178;-68
2021/12/28 00:22:03;;;;;;;3.45;1.80;;;;;;;9.90;78.88;98074.50;337628;29;1764;-67
2021/12/28 00:22:15;;;;;;;3.05;1.73;;;;;;;9.91;78.87;98070.97;338402;29;978;-68
2021/12/28 00:22:27;;;;;;;3.38;1.90;;;;;;;9.93;78.81;98078.69;338120;29;1138;-67
2021/12/28 00:22:39;;;;;;;3.13;1.80;;;;;;;9.93;78.67;98074.31;337920;29;2018;-67
2021/12/28 00:22:51;;;;;;;2.67;1.77;;;;;;;9.94;78.80;98068.22;338304;29;1503;-68
2021/12/28 00:23:07;;;;;;;3.13;1.75;;;;;;;9.94;78.50;98070.81;339205;29;1609;-68
2021/12/28 00:23:24;;;;;;;3.05;1.70;;;;;;;9.89;78.78;98072.81;339977;29;2305;-68
2021/12/28 00:23:40;;;;;;;2.25;1.42;;;;;;;9.90;78.57;98071.91;340155;28;1047;-67
2021/12/28 00:23:53;;;;;;;2.50;1.40;;;;;;;9.92;78.83;98072.66;338431;29;1040;-67
2021/12/28 00:24:05;;;;;;;2.70;1.60;;;;;;;9.89;78.80;98078.00;339781;29;1651;-68
2021/12/28 00:24:18;;;;;;;2.88;1.77;;;;;;;9.90;79.42;98078.84;340275;29;990;-68
2021/12/28 00:24:30;;;;;;;3.22;1.88;;;;;;;9.80;79.28;98081.13;340722;29;1655;-69
2021/12/28 00:24:43;;;;;;;3.55;1.90;;;;;;;9.81;79.13;98075.00;339124;29;2022;-67
2021/12/28 00:24:55;;;;;;;4.07;1.95;;;;;;;9.79;79.27;98076.84;339577;29;1083;-67
2021/12/28 00:25:08;;;;;;;3.85;1.80;;;;;;;9.80;79.49;98083.72;338030;29;1147;-68
2021/12/28 00:25:20;;;;;;;4.45;1.75;;;;;;;9.74;79.62;98076.25;338411;29;1312;-68
2021/12/28 00:25:33;;;;;;;3.78;1.70;;;;;;;9.67;79.85;98077.50;337948;29;2065;-68
2021/12/28 00:25:51;;;;;;;3.22;1.58;;;;;;;9.68;79.80;98080.03;338404;29;1206;-68
2021/12/28 00:26:05;;;;;;;4.47;1.67;;;;;;;9.69;80.02;98075.66;340013;28;2026;-68
2021/12/28 00:26:20;;;;;;;5.20;1.70;;;;;;;9.71;79.07;98073.81;339188;29;1817;-68
2021/12/28 00:26:32;;;;;;;4.32;1.67;;;;;;;9.73;78.99;98082.34;340115;29;845;-68
2021/12/28 00:26:44;;;;;;;4.63;1.85;;;;;;;9.74;78.73;98079.69;340386;29;1787;-68
2021/12/28 00:26:56;;;;;;;4.30;1.95;;;;;;;9.75;78.96;98075.31;339776;29;1653;-68
2021/12/28 00:27:08;;;;;;;4.07;1.98;;;;;;;9.79;78.91;98076.84;338903;29;2120;-67
2021/12/28 00:27:20;;;;;;;3.50;1.83;;;;;;;9.77;78.41;98073.50;339356;29;1068;-69
2021/12/28 00:27:32;;;;;;;3.55;1.80;;;;;;;9.73;78.22;98070.22;338475;29;1075;-67
2021/12/28 00:27:44;;;;;;;3.65;1.67;;;;;;;9.73;78.35;98077.16;338488;29;1291;-68
2021/12/28 00:27:57;;;;;;;3.50;1.55;;;;;;;9.70;78.00;98077.31;338467;29;1695;-67
2021/12/28 00:28:09;;;;;;;3.55;1.67;;;;;;;9.73;77.93;98077.16;339260;29;1839;-67
2021/12/28 00:28:22;;;;;;;3.13;1.65;;;;;;;9.69;78.00;98071.31;340348;29;1034;-68
2021/12/28 00:28:35;;;;;;;2.70;1.50;;;;;;;9.67;77.87;98072.31;340194;29;1917;-67
2021/12/28 00:28:47;;;;;;;2.15;1.40;;;;;;;9.65;78.67;98069.78;339881;29;728;-67
2021/12/28 00:28:59;;;;;;;3.03;1.40;;;;;;;9.58;77.30;98069.31;339457;29;1707;-68
2021/12/28 00:29:11;;;;;;;4.15;1.50;;;;;;;9.63;77.82;98065.63;338921;29;1187;-67
2021/12/28 00:29:23;;;;;;;3.45;1.52;;;;;;;9.64;77.90;98068.13;339431;29;1201;-67
2021/12/28 00:29:35;;;;;;;3.33;1.50;;;;;;;9.64;78.39;98062.09;340319;29;1068;-67
2021/12/28 00:29:48;;;;;;;4.18;1.50;;;;;;;9.62;77.67;98069.13;340305;29;1676;-68
2021/12/28 00:30:01;;;;;;;4.63;1.50;;;;;;;9.63;77.79;98071.63;338703;29;2460;-68
2021/12/28 00:30:13;;;;;;;3.78;1.40;;;;;;;9.67;77.83;98064.53;338374;29;1194;-67
2021/12/28 00:30:25;;;;;;;2.80;1.40;;;;;;;9.68;78.19;98063.59;337972;29;1274;-68
2021/12/28 00:30:38;;;;;;;3.00;1.40;;;;;;;9.66;77.30;98066.28;338586;29;1919;-68
2021/12/28 00:30:51;;;;;;;3.33;1.50;;;;;;;9.61;77.03;98068.28;340415;29;1238;-68
2021/12/28 00:31:04;;;;;;;3.38;1.55;;;;;;;9.59;76.97;98059.75;340759;29;1629;-68
2021/12/28 00:31:17;;;;;;;4.75;1.77;;;;;;;9.54;76.90;98061.78;341692;28;1096;-68
2021/12/28 00:31:29;;;;;;;4.68;1.88;;;;;;;9.53;77.06;98066.09;340924;29;991;-68
2021/12/28 00:31:41;;;;;;;3.58;1.88;;;;;;;9.55;77.25;98066.84;340456;29;1804;-68
2021/12/28 00:31:53;;;;;;;3.33;1.73;;;;;;;9.55;77.30;98061.66;340836;28;2557;-67
2021/12/28 00:32:05;;;;;;;3.30;1.67;;;;;;;9.54;77.24;98067.78;340523;29;1821;-67
2021/12/28 00:32:18;;;;;;;4.10;1.70;;;;;;;9.52;77.68;98064.44;340818;29;1073;-67
2021/12/28 00:32:30;;;;;;;5.35;1.80;;;;;;;9.53;77.34;98058.31;339615;29;1186;-68
2021/12/28 00:32:42;;;;;;;5.25;1.60;;;;;;;9.55;77.36;98059.06;339456;29;1068;-68
2021/12/28 00:32:56;;;;;;;4.68;1.45;;;;;;;9.52;77.49;98064.44;340019;28;2110;-68
2021/12/28 00:33:09;;;;;;;4.13;1.52;;;;;;;9.50;77.78;98057.69;339640;29;1080;-68
2021/12/28 00:33:23;;;;;;;3.42;1.60;;;;;;;9.49;77.92;98054.22;339755;29;1228;-68
2021/12/28 00:33:36;;;;;;;2.83;1.50;;;;;;;9.46;78.25;98057.00;339732;29;1061;-68
2021/12/28 00:33:48;;;;;;;2.45;1.48;;;;;;;9.49;78.00;98058.56;341811;28;4474;-68
2021/12/28 00:34:00;;;;;;;3.08;1.58;;;;;;;9.48;78.16;98057.75;341862;28;1435;-68
2021/12/28 00:34:12;;;;;;;3.83;1.60;;;;;;;9.48;78.20;98052.56;341017;29;1190;-68
2021/12/28 00:34:24;;;;;;;3.78;1.77;;;;;;;9.44;77.73;98058.84;341928;28;2179;-68
2021/12/28 00:34:36;;;;;;;3.63;1.80;;;;;;;9.42;78.25;98052.91;341565;28;1936;-67
2021/12/28 00:34:48;;;;;;;3.90;1.95;;;;;;;9.47;78.47;98055.22;340991;29;765;-67
2021/12/28 00:35:01;;;;;;;3.45;1.60;;;;;;;9.44;78.52;98050.19;340665;28;1734;-67
2021/12/28 00:35:13;;;;;;;3.05;1.48;;;;;;;9.42;78.62;98052.91;340538;29;1099;-68
2021/12/28 00:35:31;;;;;;;3.72;1.60;;;;;;;9.42;78.07;98050.31;340701;29;1109;-68
2021/12/28 00:35:43;;;;;;;3.60;1.73;;;;;;;9.41;77.44;98051.19;340518;29;1996;-67
2021/12/28 00:35:55;;;;;;;2.95;1.80;;;;;;;9.40;78.14;98055.56;340641;29;2185;-68
2021/12/28 00:36:07;;;;;;;3.70;1.90;;;;;;;9.40;78.93;98055.56;340550;29;1994;-67
2021/12/28 00:36:19;;;;;;;4.10;1.80;;;;;;;9.42;78.97;98049.44;341276;28;1649;-68
2021/12/28 00:36:31;;;;;;;4.55;1.80;;;;;;;9.41;78.36;98051.19;342004;28;1917;-67
2021/12/28 00:36:43;;;;;;;4.03;1.80;;;;;;;9.36;77.75;98048.03;342096;28;1159;-67
2021/12/28 00:36:55;;;;;;;3.60;1.90;;;;;;;9.36;78.07;98048.03;343189;28;1064;-68
2021/12/28 00:37:07;;;;;;;3.55;1.92;;;;;;;9.36;78.40;98050.63;342104;28;1072;-67
2021/12/28 00:37:19;;;;;;;4.85;1.95;;;;;;;9.38;78.04;98056.56;342199;28;1101;-67
2021/12/28 00:37:31;;;;;;;5.60;1.80;;;;;;;9.36;77.67;98053.22;342027;28;1096;-67
2021/12/28 00:37:43;;;;;;;4.32;1.67;;;;;;;9.33;77.51;98048.19;342180;28;1103;-67
2021/12/28 00:37:55;;;;;;;4.50;1.73;;;;;;;9.32;77.50;98051.72;341866;28;1869;-68
2021/12/28 00:38:14;;;;;;;4.00;1.80;;;;;;;9.31;78.50;98050.03;342959;28;1603;-68
2021/12/28 00:38:27;;;;;;;2.65;1.80;;;;;;;9.25;78.31;98050.34;342132;28;1985;-67
2021/12/28 00:38:39;;;;;;;3.08;1.70;;;;;;;9.26;78.06;98052.88;342759;28;1783;-68
2021/12/28 00:38:51;;;;;;;3.05;1.60;;;;;;;9.25;78.08;98046.00;343536;28;1091;-67
2021/12/28 00:39:05;;;;;;;3.78;1.70;;;;;;;9.22;79.57;98046.16;342319;28;1362;-68
2021/12/28 00:39:17;;;;;;;4.35;1.77;;;;;;;9.22;79.99;98045.34;342332;28;1083;-67
2021/12/28 00:39:30;;;;;;;3.80;1.83;;;;;;;9.18;80.15;98050.66;340950;29;1015;-67
2021/12/28 00:39:42;;;;;;;3.05;1.73;;;;;;;9.20;79.61;98043.66;340773;29;1380;-68
2021/12/28 00:39:54;;;;;;;2.85;1.60;;;;;;;9.20;79.55;98048.84;340380;29;1165;-67
2021/12/28 00:40:06;;;;;;;3.20;1.77;;;;;;;9.22;79.56;98045.34;340898;29;1158;-67
2021/12/28 00:40:19;;;;;;;3.30;1.83;;;;;;;9.16;78.84;98042.13;339464;29;1016;-67
2021/12/28 00:40:31;;;;;;;3.72;1.85;;;;;;;9.18;79.21;98045.50;339598;29;1112;-68
2021/12/28 00:40:44;;;;;;;3.10;1.60;;;;;;;9.17;79.42;98041.22;339610;29;1152;-67
2021/12/28 00:40:59;;;;;;;4.53;1.65;;;;;;;9.12;80.28;98038.03;339576;29;1315;-68
2021/12/28 00:41:11;;;;;;;5.75;1.80;;;;;;;9.03;81.04;98030.72;340736;29;1170;-68
2021/12/28 00:41:23;;;;;;;5.78;1.95;;;;;;;9.02;81.44;98034.25;339386;29;1388;-68
2021/12/28 00:41:35;;;;;;;5.63;1.95;;;;;;;9.00;81.76;98031.72;339673;29;1063;-67
2021/12/28 00:41:47;;;;;;;3.92;1.80;;;;;;;9.03;81.45;98035.91;339814;29;834;-67
2021/12/28 00:41:59;;;;;;;3.80;1.90;;;;;;;9.02;81.21;98023.06;338532;29;1790;-67
2021/12/28 00:42:13;;;;;;;4.38;2.00;;;;;;;9.03;81.28;98030.72;339746;29;1761;-67
2021/12/28 00:42:25;;;;;;;5.10;2.08;;;;;;;9.06;81.34;98035.75;340737;29;1167;-67
2021/12/28 00:42:37;;;;;;;4.95;2.03;;;;;;;9.08;81.06;98031.34;340906;29;1207;-67
2021/12/28 00:42:50;;;;;;;3.10;1.77;;;;;;;9.09;81.17;98035.59;340960;29;1551;-67
2021/12/28 00:43:03;;;;;;;3.13;1.55;;;;;;;9.11;81.31;98025.97;341513;28;1498;-68
2021/12/28 00:43:16;;;;;;;3.95;1.50;;;;;;;9.13;81.17;98031.91;340808;29;1108;-67
2021/12/28 00:43:31;;;;;;;3.90;1.60;;;;;;;9.14;81.35;98031.00;341585;28;1043;-68
2021/12/28 00:43:43;;;;;;;4.32;1.70;;;;;;;9.15;81.06;98035.25;342197;28;947;-68
2021/12/28 00:43:55;;;;;;;4.25;1.70;;;;;;;9.17;80.86;98030.00;341096;28;2183;-68
2021/12/28 00:44:08;;;;;;;3.83;1.83;;;;;;;9.14;80.62;98036.19;339242;29;1105;-67
2021/12/28 00:44:20;;;;;;;4.10;2.00;;;;;;;9.05;80.64;98039.25;339320;29;1032;-68
2021/12/28 00:44:32;;;;;;;4.15;1.90;;;;;;;8.93;81.05;98034.72;340291;29;2072;-67
2021/12/28 00:44:44;;;;;;;5.68;1.98;;;;;;;8.97;80.75;98036.22;340629;29;1020;-67
2021/12/28 00:44:56;;;;;;;5.28;1.90;;;;;;;8.92;79.68;98038.25;340608;28;1675;-68
2021/12/28 00:45:09;;;;;;;4.47;1.90;;;;;;;8.93;80.14;98035.56;340670;29;1204;-68
2021/12/28 00:45:21;;;;;;;3.65;1.70;;;;;;;8.95;80.44;98030.28;340827;29;1092;-68
2021/12/28 00:45:34;;;;;;;3.58;1.60;;;;;;;8.94;80.71;98036.41;340273;29;1598;-68
2021/12/28 00:45:46;;;;;;;4.25;1.70;;;;;;;8.92;81.16;98033.06;339873;29;1788;-68
2021/12/28 00:45:59;;;;;;;4.50;1.80;;;;;;;8.92;80.95;98035.66;341471;28;1399;-67
2021/12/28 00:46:12;;;;;;;4.43;1.75;;;;;;;8.94;81.13;98032.06;342910;28;1910;-67
2021/12/28 00:46:24;;;;;;;3.70;1.70;;;;;;;8.95;81.01;98033.75;342826;28;1680;-68
2021/12/28 00:46:36;;;;;;;4.78;1.70;;;;;;;8.96;81.41;98031.97;343431;28;1339;-68
2021/12/28 00:46:48;;;;;;;5.68;1.70;;;;;;;8.98;81.15;98037.94;342738;28;1905;-68
2021/12/28 00:47:01;;;;;;;5.03;1.60;;;;;;;8.99;81.25;98037.00;341417;28;2031;-68
2021/12/28 00:47:13;;;;;;;5.22;1.60;;;;;;;8.98;81.16;98038.75;342369;28;777;-67
2021/12/28 00:47:25;;;;;;;3.53;1.40;;;;;;;8.97;80.39;98036.22;342287;28;2934;-67
2021/12/28 00:47:38;;;;;;;3.35;1.40;;;;;;;8.98;80.07;98035.34;342237;28;1227;-67
2021/12/28 00:47:50;;;;;;;4.13;1.50;;;;;;;8.87;80.21;98032.44;342103;28;1052;-67
2021/12/28 00:48:02;;;;;;;4.80;1.50;;;;;;;8.85;80.77;98026.50;342320;28;1880;-68
2021/12/28 00:48:15;;;;;;;4.53;1.75;;;;;;;8.86;81.22;98034.22;342027;28;1047;-68
2021/12/28 00:48:28;;;;;;;3.90;1.90;;;;;;;8.90;81.26;98027.13;340967;28;2087;-68
2021/12/28 00:48:40;;;;;;;4.20;1.80;;;;;;;8.90;81.28;98025.34;340836;28;2051;-68
2021/12/28 00:48:54;;;;;;;4.57;1.70;;;;;;;8.92;81.21;98022.69;341713;28;2558;-68
2021/12/28 00:49:06;;;;;;;4.65;1.67;;;;;;;8.91;81.26;98031.38;340515;29;1009;-68
2021/12/28 00:49:18;;;;;;;4.13;1.67;;;;;;;8.89;81.41;98022.84;340975;28;1016;-68
2021/12/28 00:49:31;;;;;;;4.32;1.73;;;;;;;8.92;81.37;98017.50;340697;29;1088;-67
2021/12/28 00:49:43;;;;;;;4.20;1.77;;;;;;;8.94;81.25;98026.03;341526;28;1059;-68
2021/12/28 00:49:56;;;;;;;4.35;1.70;;;;;;;8.92;81.53;98025.28;341894;28;1074;-67
2021/12/28 00:50:10;;;;;;;5.38;1.70;;;;;;;8.86;81.62;98023.84;340810;29;1179;-68
2021/12/28 00:50:23;;;;;;;6.20;1.63;;;;;;;8.87;81.68;98019.50;340559;29;1356;-68
2021/12/28 00:50:36;;;;;;;5.93;1.45;;;;;;;8.87;81.75;98019.50;342300;28;2900;-68
2021/12/28 00:50:49;;;;;;;5.22;1.52;;;;;;;8.88;81.69;98024.59;342212;28;1167;-68
2021/12/28 00:51:02;;;;;;;3.22;1.70;;;;;;;8.80;81.54;98019.81;342876;28;1275;-68
2021/12/28 00:51:14;;;;;;;4.10;1.80;;;;;;;8.75;82.04;98024.41;343640;28;1922;-68
2021/12/28 00:51:26;;;;;;;4.72;1.75;;;;;;;8.75;81.74;98020.97;343335;28;1077;-67
2021/12/28 00:51:38;;;;;;;4.50;1.65;;;;;;;8.70;82.32;98026.38;343356;28;1296;-68
2021/12/28 00:51:50;;;;;;;4.68;1.58;;;;;;;8.67;82.56;98023.97;343219;28;2052;-68
2021/12/28 00:52:03;;;;;;;4.05;1.58;;;;;;;8.73;82.15;98021.06;343016;28;1477;-68
2021/12/28 00:52:15;;;;;;;4.13;1.63;;;;;;;8.73;82.45;98022.78;342194;28;1190;-68
2021/12/28 00:52:27;;;;;;;4.68;1.60;;;;;;;8.66;82.27;98030.03;342301;28;2002;-68
2021/12/28 00:52:39;;;;;;;5.00;1.60;;;;;;;8.60;82.39;98017.41;342951;28;2061;-68
2021/12/28 00:52:51;;;;;;;4.68;1.73;;;;;;;8.56;82.98;98023.66;343430;28;1449;-68
2021/12/28 00:53:04;;;;;;;5.70;1.90;;;;;;;8.53;83.55;98022.06;343263;28;1650;-67
2021/12/28 00:53:16;;;;;;;5.15;1.80;;;;;;;8.51;82.98;98023.03;343741;28;1075;-67
2021/12/28 00:53:28;;;;;;;5.53;1.67;;;;;;;8.58;83.23;98029.59;343502;28;1037;-67
2021/12/28 00:53:41;;;;;;;5.05;1.70;;;;;;;8.52;83.38;98019.53;343576;28;1036;-68
2021/12/28 00:53:53;;;;;;;6.43;1.90;;;;;;;8.53;83.46;98023.78;343162;28;2182;-68
2021/12/28 00:54:05;;;;;;;6.72;1.70;;;;;;;8.52;83.44;98014.38;343549;28;1696;-67
2021/12/28 00:54:18;;;;;;;7.30;1.75;;;;;;;8.46;83.32;98025.03;342800;28;2375;-68
2021/12/28 00:54:30;;;;;;;6.07;2.10;;;;;;;8.38;83.49;98028.81;343535;28;1272;-67
2021/12/28 00:54:42;;;;;;;5.05;2.05;;;;;;;8.43;83.88;98025.19;343450;28;1270;-67
2021/12/28 00:54:54;;;;;;;5.68;2.00;;;;;;;8.42;83.86;98026.09;343211;28;1055;-67
2021/12/28 00:55:08;;;;;;;5.95;1.85;;;;;;;8.40;83.97;98026.97;343390;28;1075;-68
2021/12/28 00:55:20;;;;;;;5.68;1.65;;;;;;;8.41;83.61;98025.28;343266;28;1051;-67
2021/12/28 00:55:32;;;;;;;5.90;1.67;;;;;;;8.43;83.80;98030.34;341533;28;2128;-69
2021/12/28 00:55:44;;;;;;;6.47;1.60;;;;;;;8.44;83.91;98026.88;340602;29;1779;-67
2021/12/28 00:55:56;;;;;;;5.18;1.60;;;;;;;8.33;84.18;98028.22;340955;29;1615;-68
2021/12/28 00:56:08;;;;;;;4.80;1.65;;;;;;;8.30;84.07;98033.53;340755;29;1138;-68
2021/12/28 00:56:20;;;;;;;4.50;1.70;;;;;;;8.25;84.56;98032.06;341337;28;1125;-68
2021/12/28 00:56:32;;;;;;;6.15;1.83;;;;;;;8.19;84.46;98033.22;340305;28;2185;-68
2021/12/28 00:56:44;;;;;;;5.82;1.60;;;;;;;8.18;84.48;98027.19;339569;29;1015;-68
2021/12/28 00:56:57;;;;;;;4.57;1.75;;;;;;;8.18;84.55;98031.53;340950;29;1442;-67
2021/12/28 00:57:09;;;;;;;4.63;1.80;;;;;;;8.16;84.77;98025.59;340800;29;1020;-68
2021/12/28 00:57:21;;;;;;;5.22;1.80;;;;;;;8.17;85.07;98024.69;340722;29;1013;-68
2021/12/28 00:57:34;;;;;;;5.05;1.65;;;;;;;8.28;84.87;98031.94;340680;29;1238;-68
2021/12/28 00:57:46;;;;;;;6.63;1.90;;;;;;;8.36;84.15;98030.63;340401;28;2348;-68
2021/12/28 00:57:59;;;;;;;7.38;1.90;;;;;;;8.43;83.96;98025.19;340598;29;1884;-68
2021/12/28 00:58:11;;;;;;;7.70;1.83;;;;;;;8.41;83.72;98025.28;340959;29;1008;-68
2021/12/28 00:58:23;;;;;;;4.97;1.70;;;;;;;8.44;83.78;98029.47;340338;28;1933;-67
2021/12/28 00:58:37;;;;;;;5.95;1.83;;;;;;;8.42;83.65;98026.09;341362;28;1213;-67
2021/12/28 00:58:49;;;;;;;6.32;1.90;;;;;;;8.37;83.93;98031.47;341712;28;1986;-68
2021/12/28 00:59:01;;;;;;;6.30;1.70;;;;;;;8.31;83.95;98027.44;342165;28;1682;-67
2021/12/28 00:59:13;;;;;;;4.70;1.45;;;;;;;8.34;83.69;98032.47;341727;28;2087;-68
2021/12/28 00:59:26;;;;;;;4.82;1.60;;;;;;;8.38;84.15;98031.38;342004;28;1745;-67
2021/12/28 00:59:39;;;;;;;6.18;1.80;;;;;;;8.42;83.72;98028.69;342334;28;992;-67
2021/12/28 00:59:51;;;;;;;6.15;1.85;;;;;;;8.36;83.41;98025.44;342881;28;1315;-67
2021/12/28 01:00:07;;;;;;;6.97;1.90;;;;;;;8.28;83.93;98032.75;343129;28;1594;-67
2021/12/28 01:00:25;;;;;;;6.22;1.80;;;;;;;8.25;83.90;98027.75;342337;28;1982;-67
2021/12/28 01:00:39;;;;;;;5.43;1.90;;;;;;;8.23;84.32;98024.41;340732;28;1888;-68
2021/12/28 01:00:51;;;;;;;6.55;1.90;;;;;;;8.22;84.36;98033.06;340459;28;2263;-67
2021/12/28 01:01:05;;;;;;;5.60;1.60;;;;;;;8.18;84.12;98026.38;340685;28;1523;-67
2021/12/28 01:01:18;;;;;;;6.55;1.65;;;;;;;8.16;84.76;98031.59;341170;29;793;-67
2021/12/28 01:01:30;;;;;;;7.32;1.77;;;;;;;8.15;84.85;98031.72;340704;28;2325;-67
2021/12/28 01:01:43;;;;;;;6.70;1.60;;;;;;;8.15;84.50;98031.72;340908;29;1735;-68
2021/12/28 01:01:55;;;;;;;5.07;1.60;;;;;;;8.20;84.60;98034.88;340909;28;2087;-68
2021/12/28 01:02:07;;;;;;;5.13;1.60;;;;;;;8.19;84.34;98025.47;340689;29;1994;-67
2021/12/28 01:02:20;;;;;;;4.63;1.60;;;;;;;8.18;84.51;98029.78;340724;29;1113;-67
2021/12/28 01:02:32;;;;;;;4.97;1.52;;;;;;;8.17;84.41;98035.06;340719;29;1282;-67
2021/12/28 01:02:45;;;;;;;5.53;1.75;;;;;;;8.23;84.29;98034.75;341611;28;1008;-67
2021/12/28 01:02:59;;;;;;;5.80;2.00;;;;;;;8.28;84.18;98027.59;341751;28;1750;-67
2021/12/28 01:03:11;;;;;;;5.70;1.92;;;;;;;8.35;84.44;98023.78;343245;28;1046;-68
2021/12/28 01:03:23;;;;;;;5.50;1.88;;;;;;;8.39;84.21;98025.31;342055;28;1071;-67
2021/12/28 01:03:37;;;;;;;5.13;1.70;;;;;;;8.41;84.05;98022.69;342248;28;2002;-67
2021/12/28 01:03:50;;;;;;;5.72;1.63;;;;;;;8.37;83.79;98021.97;341494;28;1827;-67
2021/12/28 01:04:06;;;;;;;7.15;1.70;;;;;;;8.48;83.65;98029.22;341392;28;2253;-67
2021/12/28 01:04:18;;;;;;;7.60;2.10;;;;;;;8.41;83.52;98022.69;341181;28;2188;-68
2021/12/28 01:04:31;;;;;;;7.60;2.17;;;;;;;8.44;83.41;98021.69;342119;28;1091;-67
2021/12/28 01:04:43;;;;;;;9.48;2.00;;;;;;;8.42;83.59;98028.69;342258;28;1347;-68
2021/12/28 01:04:55;;;;;;;8.35;1.90;;;;;;;8.49;83.57;98030.91;341827;28;2268;-68